Time;durP1;ratioP1;P1;durP2;ratioP2;P2;SDS_P1;SDS_P2;PMS_P1;PMS_P2;Temp;Humidity;BMP_temperature;BMP_pressure;BME280_temperature;BME280_humidity;BME280_pressure;Samples;Min_cycle;Max_cycle;Signal;HPM_P1;HPM_P2
2022/01/19 00:01:18;;;;;;;6.30;3.13;;;;;;;-143.84;56.70;45186.16;5108853;28;20435;-71
2022/01/19 00:03:46;;;;;;;2.70;2.50;;;;;;;-143.84;57.02;45218.53;5108955;28;20431;-71
2022/01/19 00:06:14;;;;;;;13.70;3.73;;;;;;;-143.84;57.21;45212.84;5112162;28;20775;-71
2022/01/19 00:08:42;;;;;;;5.40;3.73;;;;;;;-143.84;57.11;45207.13;5112581;28;20594;-71
2022/01/19 00:11:09;;;;;;;5.53;2.67;;;;;;;-143.84;57.56;45218.53;5112847;28;20426;-71
2022/01/19 00:13:36;;;;;;;4.93;3.43;;;;;;;-143.84;57.71;45201.41;5113086;28;20469;-71
2022/01/19 00:16:05;;;;;;;5.53;3.50;;;;;;;-143.84;57.39;45191.88;5112481;28;20442;-74
2022/01/19 00:18:33;;;;;;;3.23;3.03;;;;;;;-143.84;56.90;45210.94;5113122;28;20471;-75
2022/01/19 00:21:00;;;;;;;3.70;3.07;;;;;;;-143.84;57.05;45203.31;5113653;28;21201;-75
2022/01/19 00:23:29;;;;;;;9.13;3.37;;;;;;;-143.84;57.02;45218.53;5113483;28;20439;-75
2022/01/19 00:25:57;;;;;;;6.17;3.70;;;;;;;-143.84;57.04;45197.59;5113158;28;20865;-75
2022/01/19 00:28:25;;;;;;;3.40;3.10;;;;;;;-143.84;56.72;45210.94;5113343;28;20447;-75
2022/01/19 00:30:53;;;;;;;3.90;3.50;;;;;;;-143.84;56.79;45210.94;5094922;28;20439;-75
2022/01/19 00:33:20;;;;;;;3.43;3.03;;;;;;;-143.84;56.00;45201.41;5113122;28;20500;-75
2022/01/19 00:35:48;;;;;;;3.17;2.97;;;;;;;-143.84;56.03;45209.03;5113125;28;20442;-74
2022/01/19 00:38:15;;;;;;;4.10;3.37;;;;;;;-143.84;55.79;45197.59;5112699;28;20475;-74
2022/01/19 00:40:44;;;;;;;4.60;3.13;;;;;;;-143.84;55.36;45222.34;5113647;28;20445;-74
2022/01/19 00:43:12;;;;;;;3.73;3.27;;;;;;;-143.84;55.13;45205.22;5113075;28;20487;-74
2022/01/19 00:45:40;;;;;;;3.50;3.20;;;;;;;-143.84;54.29;45195.69;5113133;28;20451;-74
2022/01/19 00:48:07;;;;;;;4.43;2.80;;;;;;;-143.84;53.86;45193.78;5113098;28;20450;-74
2022/01/19 00:50:35;;;;;;;3.10;2.80;;;;;;;-143.84;53.60;45218.53;5112962;28;20425;-74
2022/01/19 00:53:02;;;;;;;5.17;3.00;;;;;;;-143.84;53.83;45220.44;5112998;28;20499;-74
2022/01/19 00:55:30;;;;;;;3.70;3.03;;;;;;;-143.84;53.62;45188.06;5111435;28;20447;-75
2022/01/19 00:57:58;;;;;;;3.93;2.43;;;;;;;-143.84;53.76;45189.97;5112858;28;20490;-75
2022/01/19 01:00:27;;;;;;;4.73;2.63;;;;;;;-143.84;53.81;45197.59;5112349;28;20956;-75
2022/01/19 01:02:55;;;;;;;3.40;3.10;;;;;;;-143.84;53.94;45201.41;5110491;28;20884;-75
2022/01/19 01:05:22;;;;;;;3.03;2.80;;;;;;;-143.84;53.95;45193.78;5110298;28;20450;-75
2022/01/19 01:07:50;;;;;;;3.67;3.00;;;;;;;-143.84;54.36;45197.59;5111776;28;20526;-75
2022/01/19 01:10:20;;;;;;;3.70;3.07;;;;;;;-143.84;54.18;45218.53;5111988;28;20496;-71
2022/01/19 01:12:48;;;;;;;3.83;2.77;;;;;;;-143.84;53.99;45188.06;5111307;28;20446;-76
2022/01/19 01:15:47;;;;;;;4.57;2.97;;;;;;;-143.84;54.18;45184.25;5111563;28;20435;-76
2022/01/19 01:18:19;;;;;;;6.77;2.93;;;;;;;-143.84;54.12;45191.88;5110802;28;20486;-71
2022/01/19 01:20:47;;;;;;;5.73;2.83;;;;;;;-143.84;54.30;45195.69;5111641;28;20803;-71
2022/01/19 01:23:14;;;;;;;4.83;2.87;;;;;;;-143.84;54.22;45203.31;5110887;28;20438;-71
2022/01/19 01:25:41;;;;;;;3.67;2.80;;;;;;;-143.84;54.66;45193.78;5110978;28;20503;-74
2022/01/19 01:28:08;;;;;;;4.03;3.63;;;;;;;-143.84;54.73;45222.34;5112278;28;20435;-74
2022/01/19 01:30:37;;;;;;;5.43;3.13;;;;;;;-143.84;55.07;45235.69;5111982;28;20450;-74
2022/01/19 01:33:05;;;;;;;3.73;3.43;;;;;;;-143.84;54.91;45210.94;5112164;28;20491;-75
2022/01/19 01:35:32;;;;;;;4.57;3.70;;;;;;;-143.84;55.33;45203.31;5111634;28;20496;-75
2022/01/19 01:38:00;;;;;;;5.33;3.00;;;;;;;-143.84;55.46;45228.06;5111822;28;20523;-75
2022/01/19 01:40:28;;;;;;;6.93;2.53;;;;;;;-143.84;55.26;45189.97;5111680;28;20443;-75
2022/01/19 01:42:56;;;;;;;3.53;3.07;;;;;;;-143.84;55.37;45201.41;5111390;28;20427;-75
2022/01/19 01:45:28;;;;;;;3.63;3.30;;;;;;;-143.84;55.70;45205.22;5110875;28;20909;-75
2022/01/19 01:48:06;;;;;;;6.00;3.40;;;;;;;-143.84;55.76;45216.63;5110581;28;20944;-74
2022/01/19 01:53:29;;;;;;;3.37;3.07;;;;;;;-143.84;55.63;45195.69;5111040;28;20585;-76
2022/01/19 01:55:59;;;;;;;4.43;3.40;;;;;;;-143.84;55.28;45184.25;5111166;28;20515;-76
2022/01/19 01:58:27;;;;;;;7.37;3.10;;;;;;;-143.84;54.81;45231.88;5110947;28;20505;-76
2022/01/19 02:00:55;;;;;;;3.70;2.93;;;;;;;-143.84;54.57;45209.03;5111087;28;21371;-76
2022/01/19 02:03:24;;;;;;;3.23;2.90;;;;;;;-143.84;54.90;45216.63;5110809;28;20492;-76
2022/01/19 02:08:41;;;;;;;3.67;2.93;;;;;;;-143.84;54.29;45209.03;5111033;28;20489;-75
2022/01/19 02:11:35;;;;;;;3.47;3.17;;;;;;;-143.84;54.60;45193.78;5109642;28;20557;-75
2022/01/19 02:23:11;;;;;;;4.33;2.87;;;;;;;-143.84;53.86;45224.25;5110411;28;20420;-70
2022/01/19 02:25:42;;;;;;;4.67;3.10;;;;;;;-143.84;53.74;45218.53;5110877;28;20507;-74
2022/01/19 02:36:52;;;;;;;3.27;2.87;;;;;;;-143.84;53.31;45189.97;5111020;28;20496;-74
2022/01/19 02:42:08;;;;;;;9.10;3.03;;;;;;;-143.84;53.63;45222.34;5110856;28;20943;-74
2022/01/19 02:46:38;;;;;;;8.93;3.73;;;;;;;-143.84;53.41;45224.25;5110631;28;20582;-74
2022/01/19 02:50:14;;;;;;;4.70;2.87;;;;;;;-143.84;53.62;45216.63;5110639;28;20411;-74
2022/01/19 02:52:43;;;;;;;4.07;3.43;;;;;;;-143.84;54.12;45226.16;5110788;28;20924;-74
2022/01/19 02:55:11;;;;;;;3.83;3.43;;;;;;;-143.84;53.95;45209.03;5110709;28;20445;-74
2022/01/19 02:57:39;;;;;;;5.67;3.70;;;;;;;-143.84;53.94;45201.41;5110347;28;20475;-74
2022/01/19 03:11:14;;;;;;;6.00;3.90;;;;;;;-143.84;54.59;45214.72;5094667;28;20442;-74
2022/01/19 03:13:42;;;;;;;4.43;3.63;;;;;;;-143.84;54.54;45209.03;5111050;28;20764;-74
2022/01/19 03:16:09;;;;;;;5.97;4.00;;;;;;;-143.84;54.24;45207.13;5110319;28;21319;-71
2022/01/19 03:18:36;;;;;;;10.97;3.90;;;;;;;-143.84;54.44;45209.03;5109453;28;21397;-75
2022/01/19 03:21:05;;;;;;;6.80;3.37;;;;;;;-143.84;54.64;45201.41;5110242;28;20452;-76
2022/01/19 03:23:35;;;;;;;5.87;3.40;;;;;;;-143.84;54.38;45209.03;5109397;28;20435;-76
2022/01/19 03:26:06;;;;;;;3.20;3.00;;;;;;;-143.84;54.40;45176.66;5109003;28;20484;-76
2022/01/19 03:28:33;;;;;;;4.07;3.03;;;;;;;-143.84;54.41;45203.31;5109926;28;20911;-76
2022/01/19 03:31:01;;;;;;;8.83;3.10;;;;;;;-143.84;53.84;45197.59;5110076;28;20441;-75
2022/01/19 03:33:29;;;;;;;3.40;3.10;;;;;;;-143.84;53.61;45210.94;5109633;28;20442;-75
2022/01/19 03:35:56;;;;;;;5.97;2.80;;;;;;;-143.84;53.44;45209.03;5109689;28;20466;-75
2022/01/19 03:38:23;;;;;;;4.80;3.13;;;;;;;-143.84;53.49;45218.53;5109864;28;20500;-75
2022/01/19 03:40:52;;;;;;;6.10;3.10;;;;;;;-143.84;53.75;45222.34;5111698;28;20439;-75
2022/01/19 03:43:19;;;;;;;3.40;3.10;;;;;;;-143.84;53.76;45229.97;5112693;28;20477;-75
2022/01/19 03:45:52;;;;;;;3.67;2.93;;;;;;;-143.84;53.67;45216.63;5113793;28;20443;-75
2022/01/19 03:48:34;;;;;;;11.97;3.70;;;;;;;-143.84;54.49;45191.88;5114054;28;20442;-75
2022/01/19 03:51:02;;;;;;;3.80;3.47;;;;;;;-143.84;54.90;45218.53;5113761;28;20521;-75
2022/01/19 03:53:30;;;;;;;5.93;3.58;;;;;;;-143.84;54.72;45193.78;5113828;28;20431;-75
2022/01/19 03:55:59;;;;;;;3.97;3.30;;;;;;;-143.84;54.89;45212.84;5113522;28;20803;-75
2022/01/19 03:58:26;;;;;;;11.27;4.40;;;;;;;-143.84;55.60;45220.44;5113607;28;20486;-75
2022/01/19 04:00:57;;;;;;;3.63;3.30;;;;;;;-143.84;55.57;45222.34;5113436;28;20444;-75
2022/01/19 04:03:34;;;;;;;4.17;3.10;;;;;;;-143.84;55.83;45231.88;5113197;28;20464;-75
2022/01/19 04:06:14;;;;;;;4.07;3.30;;;;;;;-143.84;55.72;45197.59;5113694;28;20873;-75
2022/01/19 04:08:41;;;;;;;3.37;2.70;;;;;;;-143.84;55.75;45218.53;5113053;28;20443;-75
2022/01/19 04:11:10;;;;;;;5.67;3.40;;;;;;;-143.84;55.83;45197.59;5113038;28;20434;-76
2022/01/19 04:13:57;;;;;;;10.20;3.87;;;;;;;-143.84;55.69;45195.69;5113301;28;20435;-76
2022/01/19 04:16:25;;;;;;;9.40;5.00;;;;;;;-143.84;55.46;45235.69;5112820;28;20435;-76
2022/01/19 04:19:01;;;;;;;7.70;4.67;;;;;;;-143.84;55.86;45222.34;5112777;28;20509;-76
2022/01/19 04:21:28;;;;;;;4.50;3.47;;;;;;;-143.84;55.60;45197.59;5112939;28;20495;-76
2022/01/19 04:23:55;;;;;;;4.23;2.90;;;;;;;-143.84;55.44;45216.63;5112819;28;20496;-76
2022/01/19 04:26:24;;;;;;;3.43;2.83;;;;;;;-143.84;55.46;45205.22;5112651;28;20431;-71
2022/01/19 04:28:51;;;;;;;6.17;3.10;;;;;;;-143.84;55.42;45189.97;5112000;28;20484;-70
2022/01/19 04:31:18;;;;;;;4.63;3.00;;;;;;;-143.84;55.37;45224.25;5112129;28;20445;-70
2022/01/19 04:33:46;;;;;;;4.40;3.33;;;;;;;-143.84;55.40;45231.88;5111636;28;20924;-70
2022/01/19 04:36:27;;;;;;;16.50;3.67;;;;;;;-143.84;55.22;45228.06;5099738;27;20445;-70
2022/01/19 04:39:21;;;;;;;4.43;3.50;;;;;;;-143.84;55.53;45186.16;5082460;28;20489;-71
2022/01/19 04:44:55;;;;;;;4.13;3.03;;;;;;;-143.84;55.74;45218.53;5079957;28;20474;-71
2022/01/19 04:48:07;;;;;;;7.23;3.50;;;;;;;-143.84;55.29;45193.78;5091107;28;20440;-71
2022/01/19 05:01:47;;;;;;;5.30;3.30;;;;;;;-143.84;56.03;45220.44;5089245;28;20439;-70
2022/01/19 05:04:28;;;;;;;5.15;3.13;;;;;;;-143.84;56.17;45252.81;5089054;28;20255;-70
2022/01/19 05:07:12;;;;;;;8.88;3.47;;;;;;;-143.84;55.86;45214.72;5088773;28;20197;-71
2022/01/19 05:10:00;;;;;;;9.57;3.30;;;;;;;-143.84;55.92;45201.41;5088316;28;20561;-70
2022/01/19 05:15:14;;;;;;;6.40;3.38;;;;;;;-143.84;55.80;45197.59;5070803;28;20428;-70
2022/01/19 05:17:41;;;;;;;5.30;3.20;;;;;;;-143.84;55.97;45218.53;5070816;28;20198;-70
2022/01/19 05:20:11;;;;;;;6.70;3.20;;;;;;;-143.84;56.06;45222.34;5070084;28;20476;-70
2022/01/19 05:22:38;;;;;;;7.70;3.70;;;;;;;-143.84;55.94;45245.19;5052922;28;20448;-70
2022/01/19 05:25:06;;;;;;;3.80;3.00;;;;;;;-143.84;56.20;45209.03;5070620;28;20448;-70
2022/01/19 05:27:33;;;;;;;6.80;3.30;;;;;;;-143.84;56.25;45216.63;5070987;28;21079;-70
2022/01/19 05:30:00;;;;;;;5.55;3.40;;;;;;;-143.84;56.23;45189.97;5070767;28;20437;-70
2022/01/19 05:32:29;;;;;;;4.07;2.70;;;;;;;-143.84;56.74;45222.34;5073269;28;20202;-70
2022/01/19 05:34:56;;;;;;;4.38;3.35;;;;;;;-143.84;56.31;45226.16;5084054;28;20202;-70
2022/01/19 05:37:23;;;;;;;4.40;3.30;;;;;;;-143.84;56.38;45216.63;5088700;28;20205;-71
2022/01/19 05:39:50;;;;;;;6.10;3.83;;;;;;;-143.84;56.72;45220.44;5090995;28;20475;-71
2022/01/19 05:42:18;;;;;;;5.53;3.13;;;;;;;-143.84;56.53;45222.34;5090337;28;20461;-70
2022/01/19 05:44:47;;;;;;;8.33;3.33;;;;;;;-143.84;56.70;45218.53;5108137;28;20479;-71
2022/01/19 05:47:15;;;;;;;4.47;3.10;;;;;;;-143.84;56.94;45235.69;5102561;28;20522;-70
2022/01/19 05:49:44;;;;;;;3.58;3.10;;;;;;;-143.84;57.17;45214.72;5100181;28;20450;-70
2022/01/19 05:52:11;;;;;;;6.63;3.55;;;;;;;-143.84;57.30;45229.97;5108897;27;20609;-70
2022/01/19 05:54:39;;;;;;;5.50;3.60;;;;;;;-143.84;57.17;45216.63;5109692;28;20250;-70
2022/01/19 05:57:07;;;;;;;4.20;3.05;;;;;;;-143.84;57.06;45214.72;5110335;28;20194;-70
2022/01/19 05:59:35;;;;;;;5.45;3.53;;;;;;;-143.84;57.04;45203.31;5092605;28;20234;-71
2022/01/19 06:02:02;;;;;;;10.70;4.37;;;;;;;-143.84;56.81;45209.03;5109993;28;20205;-71
2022/01/19 06:04:29;;;;;;;5.67;2.73;;;;;;;-143.84;56.68;45224.25;5110026;28;20437;-71
2022/01/19 06:06:58;;;;;;;5.93;3.37;;;;;;;-143.84;56.48;45197.59;5110418;28;20427;-71
2022/01/19 06:09:35;;;;;;;6.50;4.30;;;;;;;-143.84;57.25;45220.44;5110352;28;20427;-74
2022/01/19 06:12:05;;;;;;;7.03;4.20;;;;;;;-143.84;56.80;45205.22;5110189;28;20504;-70
2022/01/19 06:14:33;;;;;;;5.30;3.07;;;;;;;-143.84;56.22;45199.50;5110415;28;20228;-70
2022/01/19 06:17:00;;;;;;;9.33;4.50;;;;;;;-143.84;56.57;45209.03;5110614;28;20932;-69
2022/01/19 06:19:28;;;;;;;13.00;5.60;;;;;;;-143.84;56.48;45193.78;5109880;28;20481;-71
2022/01/19 06:21:55;;;;;;;9.50;5.75;;;;;;;-143.84;56.71;45222.34;5110188;28;20435;-71
2022/01/19 06:24:24;;;;;;;14.33;5.90;;;;;;;-143.84;56.61;45210.94;5109850;28;20209;-70
2022/01/19 06:26:51;;;;;;;4.50;3.67;;;;;;;-143.84;56.41;45209.03;5110277;28;20446;-70
2022/01/19 06:29:18;;;;;;;5.77;3.80;;;;;;;-143.84;56.92;45207.13;5108132;28;20443;-70
2022/01/19 06:31:45;;;;;;;6.77;4.33;;;;;;;-143.84;56.87;45210.94;5110142;28;20500;-70
2022/01/19 06:34:13;;;;;;;4.73;4.33;;;;;;;-143.84;56.40;45176.66;5110168;28;20444;-70
2022/01/19 06:36:40;;;;;;;7.07;4.03;;;;;;;-143.84;55.96;45167.13;5109968;28;20960;-70
2022/01/19 06:39:07;;;;;;;3.87;3.43;;;;;;;-143.84;56.13;45205.22;5109866;28;20471;-70
2022/01/19 06:41:36;;;;;;;4.50;4.10;;;;;;;-143.84;55.55;45209.03;5109475;28;20446;-70
2022/01/19 06:44:04;;;;;;;6.63;3.60;;;;;;;-143.84;55.51;45191.88;5109696;28;21000;-70
2022/01/19 06:46:31;;;;;;;5.27;3.53;;;;;;;-143.84;54.89;45191.88;5109777;28;20880;-70
2022/01/19 06:48:58;;;;;;;5.10;3.37;;;;;;;-143.84;54.15;45210.94;5109828;28;20439;-70
2022/01/19 06:51:26;;;;;;;4.13;2.90;;;;;;;-143.84;54.12;45189.97;5109530;28;20447;-71
2022/01/19 06:53:53;;;;;;;11.63;3.27;;;;;;;-143.84;53.49;45176.66;5109819;28;20450;-71
2022/01/19 06:56:21;;;;;;;7.80;3.80;;;;;;;-143.84;52.55;45189.97;5109932;28;20482;-70
2022/01/19 06:58:49;;;;;;;4.43;3.57;;;;;;;-143.84;52.18;45201.41;5110017;28;20559;-70
2022/01/19 07:01:17;;;;;;;7.83;3.57;;;;;;;-143.84;51.46;45195.69;5109967;28;20814;-70
2022/01/19 07:03:44;;;;;;;7.20;3.70;;;;;;;-143.84;51.75;45172.84;5109867;28;20805;-70
2022/01/19 07:06:11;;;;;;;5.27;3.50;;;;;;;-143.84;50.41;45191.88;5110364;28;20432;-71
2022/01/19 07:08:38;;;;;;;5.37;3.90;;;;;;;-143.84;50.39;45214.72;5108878;28;20830;-71
2022/01/19 07:11:05;;;;;;;11.93;5.03;;;;;;;-143.84;49.45;45201.41;5109983;28;21017;-71
2022/01/19 07:13:33;;;;;;;4.40;3.70;;;;;;;-143.84;48.91;45214.72;5110029;28;20443;-71
2022/01/19 07:16:02;;;;;;;10.00;4.53;;;;;;;-143.84;48.97;45197.59;5112698;28;20443;-71
2022/01/19 07:18:29;;;;;;;12.10;3.87;;;;;;;-143.84;48.24;45178.56;5114457;28;20561;-71
2022/01/19 07:20:56;;;;;;;6.70;4.40;;;;;;;-143.84;46.92;45178.56;5113993;28;20443;-71
2022/01/19 07:23:23;;;;;;;4.53;3.60;;;;;;;-143.84;46.86;45186.16;5113948;28;20522;-71
2022/01/19 07:25:50;;;;;;;6.87;3.50;;;;;;;-143.84;46.80;45188.06;5114159;28;20435;-71
2022/01/19 07:28:18;;;;;;;5.67;3.50;;;;;;;-143.84;46.24;45201.41;5113926;28;20478;-71
2022/01/19 07:30:45;;;;;;;5.83;3.50;;;;;;;-143.84;46.01;45157.59;5113579;28;20432;-71
2022/01/19 07:33:14;;;;;;;4.20;3.60;;;;;;;-143.84;45.35;45151.91;5113198;28;20436;-71
2022/01/19 07:35:41;;;;;;;13.30;3.23;;;;;;;-143.84;44.98;45163.31;5113081;28;20837;-71
2022/01/19 07:38:08;;;;;;;5.73;3.70;;;;;;;-143.84;44.44;45176.66;5113204;28;21198;-70
2022/01/19 07:40:36;;;;;;;6.30;3.10;;;;;;;-143.84;44.33;45165.22;5113068;28;20472;-71
2022/01/19 07:43:03;;;;;;;7.53;3.30;;;;;;;-143.84;43.50;45188.06;5095008;28;20475;-71
2022/01/19 07:45:30;;;;;;;5.50;3.70;;;;;;;-143.84;43.23;45155.69;5113333;28;20451;-70
2022/01/19 07:47:57;;;;;;;4.97;3.57;;;;;;;-143.84;42.54;45153.81;5113523;28;20472;-70
2022/01/19 07:50:26;;;;;;;5.07;3.93;;;;;;;-143.84;42.88;45178.56;5113006;28;20496;-70
2022/01/19 07:52:53;;;;;;;8.43;3.03;;;;;;;-143.84;44.48;45169.03;5112952;28;20434;-71
2022/01/19 07:55:21;;;;;;;6.03;3.70;;;;;;;-143.84;42.41;45163.31;5112797;28;20442;-71
2022/01/19 07:57:51;;;;;;;3.20;2.90;;;;;;;-143.84;41.80;45178.56;5113001;28;20442;-70
2022/01/19 08:00:19;;;;;;;6.07;3.30;;;;;;;-143.84;41.03;45189.97;5112393;28;20488;-70
2022/01/19 08:02:47;;;;;;;8.67;3.67;;;;;;;-143.84;40.99;45165.22;5112731;28;21134;-70
2022/01/19 08:05:14;;;;;;;4.77;4.20;;;;;;;-143.84;40.09;45132.84;5113441;28;20442;-76
2022/01/19 08:07:43;;;;;;;4.13;2.97;;;;;;;-143.84;39.80;45170.94;5113659;28;20807;-76
2022/01/19 08:10:12;;;;;;;6.03;4.13;;;;;;;-143.84;40.18;45178.56;5113169;28;20461;-76
2022/01/19 08:12:39;;;;;;;7.13;3.50;;;;;;;-143.84;39.70;45176.66;5113408;28;20431;-76
2022/01/19 08:15:07;;;;;;;9.63;3.73;;;;;;;-143.84;39.57;45174.75;5113261;28;20439;-76
2022/01/19 08:17:34;;;;;;;3.53;2.93;;;;;;;-143.84;39.90;45155.69;5113542;28;20853;-76
2022/01/19 08:20:02;;;;;;;6.03;3.87;;;;;;;-143.84;38.78;45170.94;5113231;28;20983;-76
2022/01/19 08:22:29;;;;;;;9.40;3.60;;;;;;;-143.84;38.75;45161.41;5112715;28;20492;-77
2022/01/19 08:24:58;;;;;;;6.50;3.63;;;;;;;-143.84;38.12;45201.41;5111469;28;20443;-71
2022/01/19 08:27:25;;;;;;;10.80;3.83;;;;;;;-143.84;38.30;45165.22;5111303;28;20443;-71
2022/01/19 08:29:52;;;;;;;7.20;3.40;;;;;;;-143.84;37.54;45165.22;5111942;28;20446;-72
2022/01/19 08:32:20;;;;;;;4.03;3.23;;;;;;;-143.84;37.66;45155.69;5111950;28;20970;-71
2022/01/19 08:34:47;;;;;;;4.60;3.60;;;;;;;-143.84;37.53;45142.38;5112004;28;20443;-71
2022/01/19 08:37:15;;;;;;;4.87;3.63;;;;;;;-143.84;37.58;45163.31;5093755;28;20431;-71
2022/01/19 08:39:43;;;;;;;4.47;3.53;;;;;;;-143.84;36.67;45129.03;5111809;28;20483;-71
2022/01/19 08:42:12;;;;;;;4.90;3.70;;;;;;;-143.84;36.70;45153.81;5111704;28;20431;-71
2022/01/19 08:44:40;;;;;;;5.00;3.57;;;;;;;-143.84;36.27;45140.47;5111559;28;20487;-71
2022/01/19 08:47:08;;;;;;;6.10;2.90;;;;;;;-143.84;36.62;45146.19;5110762;28;20435;-71
2022/01/19 08:49:36;;;;;;;3.53;3.23;;;;;;;-143.84;36.23;45121.44;5111017;28;20435;-71
2022/01/19 08:52:03;;;;;;;6.67;3.23;;;;;;;-143.84;35.93;45125.22;5111129;28;21045;-71
2022/01/19 08:54:31;;;;;;;4.50;3.53;;;;;;;-143.84;35.28;45138.56;5111505;28;21163;-71
2022/01/19 08:57:00;;;;;;;6.43;3.63;;;;;;;-143.84;35.74;45136.66;5110362;28;20496;-71
2022/01/19 08:59:29;;;;;;;9.93;4.03;;;;;;;-143.84;35.48;45123.34;5110243;28;20566;-75
2022/01/19 09:01:56;;;;;;;8.13;4.27;;;;;;;-143.84;35.44;45144.28;5110349;28;20474;-73
2022/01/19 09:04:24;;;;;;;5.90;3.23;;;;;;;-143.84;35.02;45117.63;5109993;28;20439;-73
2022/01/19 09:06:51;;;;;;;8.70;3.83;;;;;;;-143.84;35.39;45123.34;5110887;28;20459;-73
2022/01/19 09:09:18;;;;;;;8.70;4.30;;;;;;;-143.84;34.17;45148.09;5111606;28;20416;-73
2022/01/19 09:11:45;;;;;;;3.63;3.00;;;;;;;-143.84;33.89;45117.63;5111250;28;20436;-73
2022/01/19 09:14:12;;;;;;;8.60;4.80;;;;;;;-143.84;33.75;45129.03;5110842;28;20472;-73
2022/01/19 09:16:41;;;;;;;5.77;4.07;;;;;;;-143.84;31.85;45130.94;5110144;28;20443;-73
2022/01/19 09:19:09;;;;;;;4.13;2.30;;;;;;;-143.84;31.95;45125.22;5110323;28;20476;-75
2022/01/19 09:21:36;;;;;;;8.63;4.10;;;;;;;-143.84;32.25;45111.91;5110944;28;20975;-74
2022/01/19 09:24:04;;;;;;;5.77;2.87;;;;;;;-143.84;32.15;45127.13;5111532;28;20904;-74
2022/01/19 09:26:31;;;;;;;6.10;2.87;;;;;;;-143.84;32.03;45129.03;5111292;28;20938;-74
2022/01/19 09:28:58;;;;;;;3.23;2.93;;;;;;;-143.84;32.66;45129.03;5111495;28;20435;-74
2022/01/19 09:31:25;;;;;;;3.03;2.73;;;;;;;-143.84;31.54;45140.47;5111176;28;20448;-75
2022/01/19 09:34:06;;;;;;;4.93;3.20;;;;;;;-143.84;32.24;45132.84;5111669;28;20446;-74
2022/01/19 09:36:35;;;;;;;3.80;3.10;;;;;;;-143.84;32.71;45138.56;5111826;28;20936;-74
2022/01/19 09:39:06;;;;;;;5.03;3.17;;;;;;;-143.84;32.11;45146.19;5110582;28;20443;-74
2022/01/19 09:41:34;;;;;;;3.63;3.30;;;;;;;-143.84;31.92;45144.28;5112002;28;20485;-74
2022/01/19 09:44:02;;;;;;;16.63;4.40;;;;;;;-143.84;31.94;45132.84;5111151;28;21206;-74
2022/01/19 09:46:30;;;;;;;3.70;3.10;;;;;;;-143.84;32.06;45138.56;5112837;28;20444;-73
2022/01/19 09:48:59;;;;;;;5.70;3.50;;;;;;;-143.84;32.43;45142.38;5111823;28;20440;-74
2022/01/19 09:51:27;;;;;;;4.43;3.43;;;;;;;-143.84;32.42;45125.22;5112487;28;20520;-74
2022/01/19 09:53:54;;;;;;;4.53;3.80;;;;;;;-143.84;32.77;45138.56;5111858;28;20435;-74
2022/01/19 09:56:22;;;;;;;4.90;3.30;;;;;;;-143.84;32.13;45119.53;5104427;28;20461;-73
2022/01/19 09:58:49;;;;;;;4.30;3.90;;;;;;;-143.84;32.43;45115.72;5070768;28;20480;-75
2022/01/19 10:01:20;;;;;;;9.93;3.70;;;;;;;-143.84;31.46;45159.50;5070509;28;20482;-74
2022/01/19 10:03:48;;;;;;;5.20;3.23;;;;;;;-143.84;31.58;45117.63;5062551;28;20444;-74
2022/01/19 10:06:18;;;;;;;4.73;4.20;;;;;;;-143.84;31.02;45123.34;5069487;28;20447;-74
2022/01/19 10:08:47;;;;;;;3.13;2.80;;;;;;;-143.84;30.30;45129.03;5070330;28;20447;-74
2022/01/19 10:11:19;;;;;;;4.17;3.67;;;;;;;-143.84;30.73;45108.09;5070171;28;20487;-74
2022/01/19 10:19:21;;;;;;;6.13;4.60;;;;;;;-143.84;31.53;45117.63;5070606;28;20904;-76
2022/01/19 10:22:13;;;;;;;4.20;3.27;;;;;;;-143.84;31.16;45119.53;5078914;28;20540;-74
2022/01/19 10:24:50;;;;;;;5.70;3.27;;;;;;;-143.84;31.52;45098.56;5090945;28;20491;-75
2022/01/19 10:27:33;;;;;;;3.93;3.53;;;;;;;-143.84;31.75;45110.00;5091242;28;20847;-75
2022/01/19 10:30:22;;;;;;;5.17;3.60;;;;;;;-143.84;31.66;45140.47;5091105;28;21006;-75
2022/01/19 10:32:51;;;;;;;7.40;3.70;;;;;;;-143.84;31.13;45130.94;5091314;28;20991;-76
2022/01/19 10:35:27;;;;;;;3.83;3.53;;;;;;;-143.84;31.37;45108.09;5090148;28;20437;-75
2022/01/19 10:38:18;;;;;;;4.63;4.23;;;;;;;-143.84;31.78;45110.00;5089269;28;20487;-75
2022/01/19 10:41:04;;;;;;;4.80;3.87;;;;;;;-143.84;31.31;45157.59;5089932;28;21015;-76
2022/01/19 10:43:34;;;;;;;4.87;3.70;;;;;;;-143.84;32.03;45125.22;5103818;27;20479;-75
2022/01/19 10:46:23;;;;;;;4.67;4.00;;;;;;;-143.84;31.57;45138.56;5130110;27;20451;-76
2022/01/19 10:48:58;;;;;;;10.30;4.67;;;;;;;-143.84;31.82;45119.53;5129425;27;21034;-76
2022/01/19 10:51:29;;;;;;;9.90;5.07;;;;;;;-143.84;31.72;45106.19;5129482;27;20426;-76
2022/01/19 10:54:11;;;;;;;4.90;4.37;;;;;;;-143.84;32.89;45110.00;5129337;27;20448;-76
2022/01/19 10:56:39;;;;;;;4.13;3.77;;;;;;;-143.84;32.20;45127.13;5129681;27;20518;-75
2022/01/19 10:59:09;;;;;;;7.37;4.70;;;;;;;-143.84;33.35;45125.22;5130860;27;20437;-76
2022/01/19 11:01:44;;;;;;;8.43;4.40;;;;;;;-143.84;32.06;45110.00;5129896;27;20494;-76
2022/01/19 11:04:27;;;;;;;4.23;3.73;;;;;;;-143.84;31.23;45129.03;5130316;28;20431;-76
2022/01/19 11:06:57;;;;;;;7.47;4.37;;;;;;;-143.84;30.97;45102.38;5131220;28;20450;-76
2022/01/19 11:09:28;;;;;;;7.07;3.53;;;;;;;-143.84;31.57;45119.53;5131384;28;20426;-75
2022/01/19 11:11:58;;;;;;;4.30;3.90;;;;;;;-143.84;31.80;45140.47;5130295;28;20453;-70
2022/01/19 11:14:26;;;;;;;7.43;3.47;;;;;;;-143.84;32.32;45090.97;5129672;28;20526;-69
2022/01/19 11:16:54;;;;;;;9.73;4.33;;;;;;;-143.84;32.09;45138.56;5129488;28;20441;-70
2022/01/19 11:19:22;;;;;;;5.00;3.40;;;;;;;-143.84;31.49;45132.84;5129487;28;20438;-69
2022/01/19 11:22:12;;;;;;;6.20;3.77;;;;;;;-143.84;31.18;45111.91;5129485;28;20876;-69
2022/01/19 11:24:54;;;;;;;7.20;4.33;;;;;;;-143.84;31.17;45102.38;5129126;28;20786;-69
2022/01/19 11:27:23;;;;;;;10.60;3.47;;;;;;;-143.84;31.08;45130.94;5129121;27;20451;-69
2022/01/19 11:30:09;;;;;;;9.40;3.80;;;;;;;-143.84;31.26;45123.34;5129113;28;20448;-69
2022/01/19 11:32:36;;;;;;;4.37;3.97;;;;;;;-143.84;31.05;45138.56;5129846;28;20438;-69
2022/01/19 11:35:05;;;;;;;4.13;3.20;;;;;;;-143.84;31.04;45111.91;5129771;27;20450;-69
2022/01/19 11:37:37;;;;;;;3.20;2.90;;;;;;;-143.84;29.87;45159.50;5111144;28;20442;-69
2022/01/19 11:40:11;;;;;;;4.87;3.80;;;;;;;-143.84;30.72;45140.47;5129285;28;20450;-69
2022/01/19 11:42:38;;;;;;;9.70;6.20;;;;;;;-143.84;31.65;45129.03;5129406;28;20422;-69
2022/01/19 11:45:07;;;;;;;6.63;4.50;;;;;;;-143.84;31.81;45119.53;5103615;28;21026;-69
2022/01/19 11:47:35;;;;;;;6.37;4.87;;;;;;;-143.84;32.26;45138.56;5108719;28;20435;-69
2022/01/19 11:50:05;;;;;;;8.50;5.70;;;;;;;-143.84;32.00;45138.56;5108823;28;20443;-69
2022/01/19 11:53:06;;;;;;;16.87;8.50;;;;;;;-143.84;32.05;45119.53;5108663;28;20443;-69
2022/01/19 11:55:35;;;;;;;9.67;6.17;;;;;;;-143.84;32.29;45136.66;5108591;28;20459;-69
2022/01/19 11:58:14;;;;;;;7.20;5.93;;;;;;;-143.84;31.53;45148.09;5109107;28;20862;-69
2022/01/19 12:00:43;;;;;;;9.90;6.30;;;;;;;-143.84;31.21;45132.84;5109437;28;20478;-69
2022/01/19 12:03:24;;;;;;;10.83;5.67;;;;;;;-143.84;31.83;45125.22;5112393;28;20500;-69
2022/01/19 12:05:54;;;;;;;4.87;4.10;;;;;;;-143.84;31.81;45136.66;5112768;28;20440;-69
2022/01/19 12:08:31;;;;;;;4.40;4.00;;;;;;;-143.84;32.20;45111.91;5112270;28;20443;-69
2022/01/19 12:11:11;;;;;;;5.23;3.83;;;;;;;-143.84;31.69;45111.91;5112335;28;20533;-69
2022/01/19 12:16:52;;;;;;;6.10;4.40;;;;;;;-143.84;30.95;45119.53;5112162;28;20435;-69
2022/01/19 12:19:23;;;;;;;5.07;3.83;;;;;;;-143.84;31.54;45110.00;5112037;28;20442;-69
2022/01/19 12:21:55;;;;;;;7.07;4.13;;;;;;;-143.84;31.91;45132.84;5111464;28;20570;-69
2022/01/19 12:24:30;;;;;;;7.47;4.27;;;;;;;-143.84;31.42;45129.03;5111830;28;20500;-69
2022/01/19 12:27:08;;;;;;;6.73;4.07;;;;;;;-143.84;31.15;45140.47;5112240;28;20511;-69
2022/01/19 12:29:45;;;;;;;4.97;3.50;;;;;;;-143.84;29.47;45140.47;5111900;28;20443;-69
2022/01/19 12:32:36;;;;;;;2.93;2.70;;;;;;;-143.84;29.33;45110.00;5111966;28;20446;-68
2022/01/19 12:35:18;;;;;;;4.00;3.30;;;;;;;-143.84;29.99;45121.44;5112128;28;20443;-69
2022/01/19 12:37:47;;;;;;;4.90;3.20;;;;;;;-143.84;29.90;45136.66;5112015;28;20458;-68